KR-0365 weather

Halla Vivaldi Apartments Heliports
Busan, Busan Gwang'yeogsi, South Korea

Public forecast

Using degrees Celsius for public forecast. Weather courtesy of forecast.io.

Closest aviation weather report (METAR) to Halla Vivaldi Apartments Heliports

Closest report is Gimhae International Airport, 6.6 nm (12.1 km) WNW. Retrieved 2020/08/08 05:41 UTC (7 minutes ago):

RKPK 080541Z 18006KT 4800 TSRA BR SCT010 BKN015 FEW018CB OVC025 26/24 A2966 RMK CIG015 OCNL LTG IC TS B37 SW WR24

Closest aviation forecast (TAF) to Halla Vivaldi Apartments Heliports

Closest forecast is Gimhae International Airport, 6.6 nm (12.1 km) WNW. Retrieved 2020-08-08 00:00 UTC (6 hours ago):

TAF RKPK 072300Z 0800/0906 19010KT 4800 -RA BR BKN015 OVC030 TX28/0806Z TN24/0821Z BECMG 0803/0804 8000 -RA SCT015 BKN030 BECMG 0808/0809 18006KT